Terminal Aerodrome Forecast
Issued by NWS

Home | Current Version | Previous Version | Text Only | Print | Product List | Glossary On
Versions: 1 2 3 4 5 6 7 8 9 10 11 12 13 14 15 16
000
FTUS42 TJSJ 281000 AAB
TAFJSJ
TAF AMD
TJSJ 281009Z 2810/2906 08010KT P6SM VCSH SCT022 BKN050
      TEMPO 2810/2814 VRB15G21KT 5SM SHRA BKN022
     FM281500 07015G25KT P6SM FEW025 SCT050 SCT090
     FM282230 09012KT P6SM VCSH SCT030=

USA.gov is the U.S. government's official web portal to all federal, state and local government web resources and services.